createdAt,value
2018-07-09T00:00:05.545Z,15.92
2018-07-09T00:01:07.422Z,15.76
2018-07-09T00:02:06.122Z,15.80
2018-07-09T00:03:06.513Z,15.73
2018-07-09T04:00:28.805Z,12.46
2018-07-09T04:01:28.751Z,12.44
2018-07-09T04:02:28.744Z,12.56
2018-07-09T04:03:28.779Z,12.52
2018-07-09T04:04:28.717Z,12.51
2018-07-09T04:05:28.714Z,12.38
2018-07-09T04:06:28.692Z,12.54
2018-07-09T04:07:28.677Z,12.55
2018-07-09T04:08:28.698Z,12.55
2018-07-09T04:09:28.652Z,12.54
2018-07-09T04:10:28.644Z,12.58
2018-07-09T04:11:28.650Z,12.70
2018-07-09T04:12:28.630Z,12.71
2018-07-09T04:13:28.636Z,12.79
2018-07-09T04:14:28.603Z,12.80
2018-07-09T04:15:28.584Z,12.80
2018-07-09T04:16:28.576Z,12.89
2018-07-09T04:17:28.572Z,12.85
2018-07-09T04:18:28.570Z,12.84
2018-07-09T04:19:28.549Z,12.92
2018-07-09T04:20:28.537Z,12.94
2018-07-09T04:21:28.524Z,12.94
2018-07-09T04:22:28.514Z,12.87
2018-07-09T04:23:28.578Z,12.87
2018-07-09T04:24:28.507Z,12.89
2018-07-09T04:25:28.478Z,12.81
2018-07-09T04:26:28.470Z,12.85
2018-07-09T04:27:28.471Z,12.76
2018-07-09T04:28:28.461Z,12.74
2018-07-09T04:29:28.434Z,12.79
2018-07-09T04:30:28.417Z,12.79
2018-07-09T04:31:28.406Z,12.79
2018-07-09T04:32:28.396Z,12.84
2018-07-09T04:33:28.430Z,12.73
2018-07-09T04:34:28.372Z,12.81
2018-07-09T04:35:28.360Z,12.88
2018-07-09T04:36:28.352Z,12.81
2018-07-09T04:37:28.339Z,12.79
2018-07-09T04:38:28.342Z,12.80
2018-07-09T04:39:28.320Z,12.73
2018-07-09T04:40:28.310Z,12.87
2018-07-09T04:41:28.295Z,12.73
2018-07-09T04:42:28.284Z,12.87
2018-07-09T04:43:28.300Z,12.84
2018-07-09T04:44:28.261Z,12.89
2018-07-09T04:45:28.254Z,12.84
2018-07-09T04:46:28.240Z,12.84
2018-07-09T04:47:28.226Z,12.88
2018-07-09T04:48:28.226Z,12.88
2018-07-09T04:49:28.208Z,12.87
2018-07-09T04:50:28.195Z,12.87
2018-07-09T04:51:28.184Z,12.87
2018-07-09T04:52:28.171Z,12.89
2018-07-09T04:53:28.179Z,12.94
2018-07-09T04:54:28.151Z,12.81
2018-07-09T04:55:28.158Z,12.77
2018-07-09T04:56:28.126Z,12.91
2018-07-09T04:57:28.118Z,12.85
2018-07-09T04:58:28.146Z,12.89
2018-07-09T04:59:28.095Z,12.85
2018-07-09T05:00:28.110Z,12.92
2018-07-09T05:01:28.074Z,12.88
2018-07-09T05:02:28.061Z,12.87
2018-07-09T05:03:28.056Z,12.92
2018-07-09T05:04:28.053Z,12.94
2018-07-09T05:05:28.029Z,12.92
2018-07-09T05:06:28.022Z,12.94
2018-07-09T05:07:28.011Z,12.94
2018-07-09T05:08:27.995Z,12.94
2018-07-09T05:09:27.996Z,12.98
2018-07-09T05:10:27.973Z,13.01
2018-07-09T05:11:27.977Z,12.95
2018-07-09T05:12:27.950Z,12.99
2018-07-09T05:13:27.939Z,13.03
2018-07-09T05:14:27.946Z,13.04
2018-07-09T05:15:27.919Z,13.14
2018-07-09T05:16:27.906Z,13.14
2018-07-09T05:17:27.896Z,13.07
2018-07-09T05:18:27.886Z,13.19
2018-07-09T05:19:27.888Z,13.12
2018-07-09T05:20:27.863Z,13.14
2018-07-09T05:21:27.855Z,13.19
2018-07-09T05:22:27.844Z,13.21
2018-07-09T05:23:27.864Z,13.17
2018-07-09T05:24:27.833Z,13.28
2018-07-09T05:25:27.828Z,13.16
2018-07-09T05:26:27.815Z,13.25
2018-07-09T05:27:27.796Z,13.32
2018-07-09T05:28:27.779Z,13.32
2018-07-09T05:29:27.778Z,13.38
2018-07-09T05:30:27.753Z,13.46
2018-07-09T05:31:27.739Z,13.41
2018-07-09T05:32:27.727Z,13.51
2018-07-09T05:33:27.726Z,13.65
2018-07-09T05:34:27.722Z,13.54
2018-07-09T05:35:27.695Z,13.69
2018-07-09T05:36:27.709Z,13.71
2018-07-09T05:37:27.676Z,13.81
2018-07-09T05:38:27.660Z,13.88
2018-07-09T05:39:27.667Z,13.84
2018-07-09T05:40:27.638Z,13.90
2018-07-09T05:41:27.635Z,13.99
2018-07-09T05:42:27.617Z,13.98
2018-07-09T05:43:27.608Z,14.06
2018-07-09T05:44:27.613Z,14.12
2018-07-09T05:45:27.587Z,14.13
2018-07-09T05:46:27.572Z,14.26
2018-07-09T05:47:27.571Z,14.21
2018-07-09T05:48:27.565Z,14.16
2018-07-09T05:49:27.566Z,14.21
2018-07-09T05:50:27.533Z,14.29
2018-07-09T05:51:27.519Z,14.31
2018-07-09T05:52:27.514Z,14.26
2018-07-09T05:53:27.550Z,14.26
2018-07-09T05:54:27.508Z,14.42
2018-07-09T05:55:27.473Z,14.42
2018-07-09T05:56:27.469Z,14.45
2018-07-09T05:57:27.479Z,14.46
2018-07-09T05:58:27.441Z,14.54
2018-07-09T05:59:27.449Z,14.72
2018-07-09T06:00:27.443Z,15.19
2018-07-09T06:01:27.414Z,15.76
2018-07-09T06:02:27.396Z,16.59
2018-07-09T06:11:48.527Z,19.39
2018-07-09T06:12:48.497Z,19.40
2018-07-09T06:13:48.486Z,19.64
2018-07-09T06:14:48.484Z,20.00
2018-07-09T06:15:48.501Z,20.00
2018-07-09T06:16:48.468Z,19.98
2018-07-09T06:17:48.435Z,20.10
2018-07-09T06:18:48.434Z,20.26
2018-07-09T06:19:48.455Z,20.42
2018-07-09T06:20:48.413Z,20.64
2018-07-09T06:21:48.389Z,20.79
2018-07-09T06:22:48.378Z,21.09
2018-07-09T06:23:48.369Z,21.42
2018-07-09T06:24:48.375Z,21.91
2018-07-09T06:25:48.345Z,22.30
2018-07-09T06:26:48.334Z,22.27
2018-07-09T06:27:48.324Z,22.74
2018-07-09T06:28:48.325Z,23.09
2018-07-09T06:29:48.311Z,23.26
2018-07-09T06:30:48.287Z,23.29
2018-07-09T06:31:48.275Z,23.37
2018-07-09T06:32:48.268Z,23.37
2018-07-09T06:33:48.253Z,23.77
2018-07-09T06:34:48.257Z,24.16
2018-07-09T06:35:48.237Z,24.06
2018-07-09T06:36:48.223Z,23.81
2018-07-09T06:37:48.218Z,23.77
2018-07-09T06:38:48.204Z,24.00
2018-07-09T06:39:48.202Z,24.05
2018-07-09T06:40:48.199Z,24.23
2018-07-09T06:41:48.164Z,24.53
2018-07-09T06:42:48.157Z,25.04
2018-07-09T06:43:48.144Z,25.19
2018-07-09T06:44:48.188Z,25.42
2018-07-09T06:45:48.126Z,25.54
2018-07-09T06:46:48.117Z,25.64
2018-07-09T06:47:48.102Z,25.56
2018-07-09T06:48:48.095Z,25.42
2018-07-09T06:49:48.089Z,25.07
2018-07-09T06:50:48.070Z,25.12
2018-07-09T06:51:48.063Z,25.67
2018-07-09T06:52:48.045Z,26.09
2018-07-09T06:53:48.037Z,26.41
2018-07-09T06:54:48.040Z,26.64
2018-07-09T06:55:48.014Z,26.83
2018-07-09T06:56:48.000Z,27.23
2018-07-09T06:57:47.998Z,27.63
2018-07-09T06:58:47.985Z,27.62
2018-07-09T06:59:47.977Z,27.48
2018-07-09T07:00:47.962Z,27.43
2018-07-09T07:01:47.950Z,27.49
2018-07-09T07:02:47.938Z,27.39
2018-07-09T07:03:47.924Z,27.28
2018-07-09T07:04:47.929Z,26.46
2018-07-09T07:05:47.902Z,25.81
2018-07-09T07:06:47.892Z,25.74
2018-07-09T07:07:47.897Z,25.57
2018-07-09T07:08:48.012Z,26.03
2018-07-09T07:09:47.874Z,26.57
2018-07-09T07:10:47.859Z,27.28
2018-07-09T07:11:47.837Z,27.91
2018-07-09T07:12:47.826Z,28.27
2018-07-09T07:13:47.824Z,28.94
2018-07-09T07:14:47.819Z,29.39
2018-07-09T07:15:47.796Z,29.20
2018-07-09T07:16:47.786Z,29.30
2018-07-09T07:17:47.782Z,29.21
2018-07-09T07:18:47.767Z,28.46
2018-07-09T07:19:47.763Z,28.03
2018-07-09T07:20:47.738Z,27.30
2018-07-09T07:21:47.727Z,26.71
2018-07-09T07:22:47.718Z,26.24
2018-07-09T07:23:47.706Z,26.13
2018-07-09T07:24:47.709Z,26.08
2018-07-09T07:25:47.689Z,26.49
2018-07-09T07:26:47.705Z,25.81
2018-07-09T07:27:47.666Z,25.76
2018-07-09T07:28:47.660Z,25.94
2018-07-09T07:29:47.656Z,25.59
2018-07-09T07:30:47.663Z,25.23
2018-07-09T07:31:47.619Z,25.26
2018-07-09T07:32:47.667Z,25.11
2018-07-09T07:33:47.600Z,25.57
2018-07-09T07:34:47.601Z,26.28
2018-07-09T07:35:47.585Z,26.91
2018-07-09T07:36:47.571Z,26.88
2018-07-09T07:37:47.553Z,26.56
2018-07-09T07:38:47.543Z,26.21
2018-07-09T07:39:47.564Z,26.56
2018-07-09T07:40:47.523Z,27.50
2018-07-09T07:41:47.515Z,28.25
2018-07-09T07:42:47.499Z,28.92
2018-07-09T07:43:47.491Z,29.60
2018-07-09T07:44:47.551Z,30.15
2018-07-09T07:45:47.469Z,30.26
2018-07-09T07:46:47.455Z,30.00
2018-07-09T07:47:47.451Z,29.30
2018-07-09T07:48:47.434Z,29.05
2018-07-09T07:49:47.487Z,28.42
2018-07-09T07:50:47.412Z,28.11
2018-07-09T07:51:47.402Z,28.03
2018-07-09T07:52:47.395Z,27.72
2018-07-09T07:53:47.381Z,27.35
2018-07-09T07:54:47.372Z,27.38
2018-07-09T07:55:47.430Z,27.72
2018-07-09T07:56:47.346Z,27.72
2018-07-09T07:57:47.335Z,27.83
2018-07-09T07:58:47.325Z,28.30
2018-07-09T07:59:47.318Z,28.70
2018-07-09T08:00:47.314Z,28.94
2018-07-09T08:01:47.292Z,29.41
2018-07-09T08:02:47.286Z,29.48
2018-07-09T08:03:47.273Z,29.60
2018-07-09T08:04:47.259Z,29.92
2018-07-09T08:05:47.273Z,30.53
2018-07-09T08:06:47.237Z,30.90
2018-07-09T08:07:47.228Z,31.65
2018-07-09T08:08:47.219Z,32.21
2018-07-09T08:09:47.216Z,30.85
2018-07-09T08:10:47.209Z,31.25
2018-07-09T08:11:49.003Z,31.31
2018-07-09T08:13:27.172Z,31.38
2018-07-09T08:13:48.247Z,31.09
2018-07-09T08:14:47.195Z,31.01
2018-07-09T08:15:47.231Z,29.78
2018-07-09T08:16:47.129Z,28.46
2018-07-09T08:17:47.118Z,28.18
2018-07-09T08:18:47.109Z,27.76
2018-07-09T08:19:47.104Z,27.69
2018-07-09T08:20:47.100Z,27.81
2018-07-09T08:21:47.117Z,27.40
2018-07-09T08:22:47.066Z,26.86
2018-07-09T08:23:47.056Z,26.46
2018-07-09T08:24:47.148Z,26.09
2018-07-09T08:25:47.046Z,26.72
2018-07-09T08:26:47.025Z,28.21
2018-07-09T08:27:47.012Z,29.15
2018-07-09T08:28:47.004Z,29.91
2018-07-09T08:29:46.989Z,28.18
2018-07-09T08:30:47.219Z,29.12
2018-07-09T08:31:46.990Z,27.65
2018-07-09T08:32:46.968Z,28.06
2018-07-09T08:33:46.948Z,29.62
2018-07-09T08:34:46.936Z,30.34
2018-07-09T08:35:46.941Z,30.83
2018-07-09T08:36:46.914Z,31.04
2018-07-09T08:37:46.903Z,31.65
2018-07-09T08:38:46.891Z,32.19
2018-07-09T08:39:46.885Z,32.50
2018-07-09T08:40:46.883Z,32.65
2018-07-09T08:41:46.862Z,32.72
2018-07-09T08:42:46.848Z,33.17
2018-07-09T08:43:46.837Z,33.79
2018-07-09T08:44:46.829Z,32.25
2018-07-09T08:45:46.827Z,31.82
2018-07-09T08:46:46.803Z,32.19
2018-07-09T08:47:46.794Z,31.62
2018-07-09T08:48:46.788Z,32.84
2018-07-09T08:49:46.777Z,33.89
2018-07-09T08:50:46.772Z,34.48
2018-07-09T08:51:46.757Z,35.02
2018-07-09T08:52:46.743Z,36.08
2018-07-09T08:53:46.747Z,36.03
2018-07-09T08:54:46.721Z,35.29
2018-07-09T08:55:46.732Z,33.96
2018-07-09T08:56:46.700Z,33.34
2018-07-09T08:57:46.692Z,32.58
2018-07-09T08:58:46.682Z,32.09
2018-07-09T08:59:46.665Z,30.85
2018-07-09T09:00:46.670Z,31.60
2018-07-09T09:01:46.656Z,32.62
2018-07-09T09:02:46.659Z,32.49
2018-07-09T09:03:46.677Z,32.44
2018-07-09T09:04:46.613Z,32.58
2018-07-09T09:05:46.602Z,33.15
2018-07-09T09:06:46.609Z,34.86
2018-07-09T09:07:46.580Z,35.55
2018-07-09T09:08:46.570Z,36.03
2018-07-09T09:09:46.561Z,35.93
2018-07-09T09:10:46.550Z,35.64
2018-07-09T09:11:46.550Z,35.59
2018-07-09T09:12:46.632Z,35.44
2018-07-09T09:13:46.517Z,35.09
2018-07-09T09:14:46.508Z,34.95
2018-07-09T09:15:46.492Z,33.97
2018-07-09T09:16:46.498Z,34.45
2018-07-09T09:17:46.471Z,35.02
2018-07-09T09:18:46.461Z,36.13
2018-07-09T09:19:46.458Z,36.02
2018-07-09T09:20:46.441Z,35.03
2018-07-09T09:21:46.447Z,34.28
2018-07-09T09:22:46.420Z,32.96
2018-07-09T09:23:46.415Z,32.77
2018-07-09T09:24:46.400Z,31.12
2018-07-09T09:25:46.389Z,30.23
2018-07-09T09:26:46.373Z,30.75
2018-07-09T09:27:46.376Z,30.81
2018-07-09T09:28:46.359Z,30.49
2018-07-09T09:29:46.343Z,30.93
2018-07-09T09:30:46.336Z,31.01
2018-07-09T09:31:46.320Z,32.10
2018-07-09T09:32:46.322Z,32.53
2018-07-09T09:33:46.298Z,32.73
2018-07-09T09:34:46.291Z,32.96
2018-07-09T09:35:46.277Z,33.90
2018-07-09T09:36:46.273Z,34.28
2018-07-09T09:37:46.266Z,35.55
2018-07-09T09:38:46.245Z,35.10
2018-07-09T09:39:46.237Z,35.25
2018-07-09T09:40:46.222Z,35.61
2018-07-09T09:41:46.213Z,35.10
2018-07-09T09:42:46.212Z,34.84
2018-07-09T09:43:46.190Z,34.49
2018-07-09T09:44:46.179Z,34.80
2018-07-09T09:45:46.177Z,34.84
2018-07-09T09:46:46.163Z,33.62
2018-07-09T09:47:46.164Z,34.08
2018-07-09T09:48:46.150Z,33.43
2018-07-09T09:49:46.131Z,32.46
2018-07-09T09:50:46.119Z,31.98
2018-07-09T09:51:46.114Z,31.99
2018-07-09T09:52:46.097Z,30.91
2018-07-09T09:53:46.094Z,30.57
2018-07-09T09:54:46.072Z,29.81
2018-07-09T09:55:46.066Z,29.36
2018-07-09T09:56:46.052Z,28.11
2018-07-09T09:57:46.039Z,27.21
2018-07-09T09:58:46.042Z,26.72
2018-07-09T09:59:46.024Z,26.41
2018-07-09T10:00:46.012Z,25.89
2018-07-09T10:01:45.996Z,25.63
2018-07-09T10:02:45.989Z,25.29
2018-07-09T10:03:45.993Z,25.30
2018-07-09T10:04:45.969Z,25.01
2018-07-09T10:05:45.954Z,24.75
2018-07-09T10:06:45.943Z,24.82
2018-07-09T10:07:45.931Z,24.74
2018-07-09T10:08:45.933Z,24.75
2018-07-09T10:09:45.914Z,24.51
2018-07-09T10:10:45.902Z,24.63
2018-07-09T10:11:45.891Z,24.67
2018-07-09T10:12:45.878Z,24.59
2018-07-09T10:13:45.884Z,24.55
2018-07-09T10:14:45.857Z,24.59
2018-07-09T10:15:45.849Z,24.60
2018-07-09T10:16:45.866Z,24.64
2018-07-09T10:17:45.829Z,24.67
2018-07-09T10:18:45.812Z,24.64
2018-07-09T10:19:45.813Z,24.36
2018-07-09T10:20:45.793Z,24.21
2018-07-09T10:21:45.783Z,24.16
2018-07-09T10:22:45.795Z,24.21
2018-07-09T10:23:45.767Z,24.26
2018-07-09T10:24:45.772Z,24.19
2018-07-09T10:25:45.738Z,24.16
2018-07-09T10:26:45.738Z,24.23
2018-07-09T10:27:45.782Z,24.26
2018-07-09T10:28:45.706Z,24.33
2018-07-09T10:29:45.706Z,24.16
2018-07-09T10:30:45.685Z,24.15
2018-07-09T10:31:45.674Z,24.36
2018-07-09T10:32:45.675Z,24.30
2018-07-09T10:33:45.674Z,24.30
2018-07-09T10:34:45.655Z,24.31
2018-07-09T10:35:45.632Z,24.14
2018-07-09T10:36:45.620Z,23.86
2018-07-09T10:37:45.612Z,23.87
2018-07-09T10:38:45.605Z,23.92
2018-07-09T10:39:45.598Z,24.00
2018-07-09T10:40:45.579Z,24.15
2018-07-09T10:41:45.569Z,23.94
2018-07-09T10:42:45.555Z,23.92
2018-07-09T10:43:45.544Z,23.77
2018-07-09T10:44:45.543Z,23.81
2018-07-09T10:45:45.525Z,23.93
2018-07-09T10:46:45.514Z,23.87
2018-07-09T10:47:45.507Z,23.78
2018-07-09T10:48:45.494Z,23.78
2018-07-09T10:49:45.516Z,23.79
2018-07-09T10:50:45.471Z,23.79
2018-07-09T10:51:45.468Z,23.96
2018-07-09T10:52:45.448Z,23.90
2018-07-09T10:53:45.436Z,23.89
2018-07-09T10:54:45.426Z,23.94
2018-07-09T10:55:45.474Z,23.99
2018-07-09T10:56:45.405Z,23.89
2018-07-09T10:57:45.431Z,23.84
2018-07-09T10:58:45.383Z,23.96
2018-07-09T10:59:45.372Z,23.96
2018-07-09T11:00:45.435Z,23.89
2018-07-09T11:01:45.350Z,24.06
2018-07-09T11:02:45.339Z,24.08
2018-07-09T11:03:45.327Z,24.11
2018-07-09T11:04:45.317Z,24.15
2018-07-09T11:05:45.323Z,24.09
2018-07-09T11:06:45.296Z,24.04
2018-07-09T11:07:45.287Z,23.96
2018-07-09T11:08:45.278Z,23.97
2018-07-09T11:09:45.323Z,24.02
2018-07-09T11:10:45.267Z,23.94
2018-07-09T11:11:45.243Z,24.11
2018-07-09T11:12:45.235Z,24.09
2018-07-09T11:13:45.221Z,24.11
2018-07-09T11:14:45.220Z,24.24
2018-07-09T11:15:45.218Z,24.15
2018-07-09T11:16:45.188Z,24.21
2018-07-09T11:17:45.179Z,24.16
2018-07-09T11:18:45.172Z,24.06
2018-07-09T11:19:45.157Z,24.06
2018-07-09T11:20:45.150Z,23.96
2018-07-09T11:21:45.268Z,24.00
2018-07-09T11:22:45.124Z,23.90
2018-07-09T11:23:45.113Z,24.06
2018-07-09T11:24:45.104Z,24.05
2018-07-09T11:25:45.097Z,24.11
2018-07-09T11:26:45.091Z,24.16
2018-07-09T11:27:45.072Z,24.14
2018-07-09T11:28:45.062Z,24.11
2018-07-09T11:29:45.053Z,24.23
2018-07-09T11:30:45.043Z,24.27
2018-07-09T11:31:45.045Z,24.14
2018-07-09T11:32:45.019Z,24.15
2018-07-09T11:33:45.065Z,24.14
2018-07-09T11:34:44.994Z,24.12
2018-07-09T11:35:44.989Z,24.12
2018-07-09T11:36:44.988Z,24.04
2018-07-09T11:37:44.965Z,24.12
2018-07-09T11:38:44.953Z,24.11
2018-07-09T11:39:44.941Z,24.09
2018-07-09T11:40:44.989Z,24.06
2018-07-09T11:41:44.930Z,23.89
2018-07-09T11:42:44.908Z,23.87
2018-07-09T11:43:44.903Z,23.74
2018-07-09T11:44:44.894Z,23.79
2018-07-09T11:45:44.877Z,23.77
2018-07-09T11:46:44.877Z,23.72
2018-07-09T11:47:44.855Z,23.72
2018-07-09T11:48:44.846Z,23.78
2018-07-09T11:49:44.833Z,23.92
2018-07-09T11:50:44.822Z,24.04
2018-07-09T11:51:44.824Z,24.04
2018-07-09T11:52:44.803Z,24.14
2018-07-09T11:53:44.793Z,24.05
2018-07-09T11:54:44.782Z,23.90
2018-07-09T11:55:44.768Z,23.92
2018-07-09T11:56:44.768Z,23.77
2018-07-09T11:57:44.747Z,23.90
2018-07-09T11:58:44.829Z,23.74
2018-07-09T11:59:44.728Z,23.71
2018-07-09T12:00:44.712Z,23.81
2018-07-09T12:01:44.718Z,23.75
2018-07-09T12:02:44.710Z,23.82
2018-07-09T12:03:44.686Z,23.84
2018-07-09T12:04:44.677Z,23.81
2018-07-09T12:05:44.661Z,23.69
2018-07-09T12:06:44.664Z,23.74
2018-07-09T12:07:44.639Z,23.75
2018-07-09T12:08:44.643Z,23.75
2018-07-09T12:09:44.629Z,23.77
2018-07-09T12:10:44.607Z,23.78
2018-07-09T12:11:44.614Z,23.87
2018-07-09T12:12:44.585Z,23.93
2018-07-09T12:13:44.579Z,23.93
2018-07-09T12:14:44.602Z,24.06
2018-07-09T12:15:44.553Z,23.96
2018-07-09T12:16:44.553Z,23.96
2018-07-09T12:17:44.530Z,23.92
2018-07-09T12:18:44.520Z,24.19
2018-07-09T12:19:44.510Z,24.14
2018-07-09T12:20:44.500Z,24.15
2018-07-09T12:21:44.557Z,24.23
2018-07-09T12:22:44.477Z,24.15
2018-07-09T12:23:44.471Z,24.12
2018-07-09T12:24:44.456Z,24.14
2018-07-09T12:25:44.445Z,24.27
2018-07-09T12:26:44.452Z,24.18
2018-07-09T12:27:44.423Z,24.24
2018-07-09T12:28:44.412Z,24.11
2018-07-09T12:29:44.403Z,24.24
2018-07-09T12:30:44.416Z,24.09
2018-07-09T12:31:44.404Z,24.15
2018-07-09T12:32:44.369Z,24.27
2018-07-09T12:33:44.361Z,24.26
2018-07-09T12:34:44.347Z,24.24
2018-07-09T12:35:44.345Z,24.23
2018-07-09T12:36:44.326Z,24.29
2018-07-09T12:37:44.330Z,24.14
2018-07-09T12:38:44.321Z,24.15
2018-07-09T12:39:44.296Z,24.16
2018-07-09T12:40:44.292Z,24.29
2018-07-09T12:41:44.272Z,24.29
2018-07-09T12:42:44.275Z,24.14
2018-07-09T12:43:44.266Z,24.09
2018-07-09T12:44:44.248Z,24.27
2018-07-09T12:45:44.231Z,24.24
2018-07-09T12:46:44.218Z,24.18
2018-07-09T12:47:44.217Z,24.27
2018-07-09T12:48:44.195Z,24.42
2018-07-09T12:49:44.243Z,24.39
2018-07-09T12:50:44.180Z,24.31
2018-07-09T12:51:44.188Z,24.26
2018-07-09T12:52:44.168Z,24.24
2018-07-09T12:53:44.148Z,24.30
2018-07-09T12:54:44.135Z,24.21
2018-07-09T12:55:44.179Z,24.12
2018-07-09T12:56:44.129Z,24.11
2018-07-09T12:57:44.114Z,24.08
2018-07-09T12:58:44.094Z,24.05
2018-07-09T12:59:44.077Z,24.02
2018-07-09T13:00:44.068Z,24.02
2018-07-09T13:01:44.122Z,23.94
2018-07-09T13:02:44.060Z,23.99
2018-07-09T13:03:44.037Z,23.89
2018-07-09T13:04:44.023Z,24.15
2018-07-09T13:05:44.019Z,24.16
2018-07-09T13:06:44.002Z,24.21
2018-07-09T13:07:44.004Z,24.11
2018-07-09T13:08:43.982Z,24.12
2018-07-09T13:09:43.970Z,24.09
2018-07-09T13:10:43.961Z,24.14
2018-07-09T13:11:43.961Z,24.11
2018-07-09T13:12:43.958Z,24.11
2018-07-09T13:13:43.929Z,24.16
2018-07-09T13:14:43.919Z,24.12
2018-07-09T13:15:43.906Z,24.09
2018-07-09T13:16:43.902Z,24.15
2018-07-09T13:17:43.895Z,24.12
2018-07-09T13:18:43.877Z,24.11
2018-07-09T13:19:43.863Z,24.12
2018-07-09T13:20:43.852Z,24.27
2018-07-09T13:21:43.839Z,24.21
2018-07-09T13:22:43.843Z,24.14
2018-07-09T13:23:43.820Z,24.21
2018-07-09T13:24:43.814Z,24.24
2018-07-09T13:25:43.797Z,24.18
2018-07-09T13:26:43.787Z,24.29
2018-07-09T13:27:43.789Z,24.15
2018-07-09T13:28:43.766Z,24.19
2018-07-09T13:29:43.754Z,24.18
2018-07-09T13:30:43.784Z,24.21
2018-07-09T13:31:43.733Z,24.14
2018-07-09T13:32:43.732Z,24.16
2018-07-09T13:33:43.711Z,24.15
2018-07-09T13:34:43.700Z,24.16
2018-07-09T13:35:43.692Z,24.11
2018-07-09T13:36:43.680Z,24.15
2018-07-09T13:37:43.680Z,24.00
2018-07-09T13:38:43.658Z,24.05
2018-07-09T13:39:43.648Z,24.06
2018-07-09T13:40:43.634Z,24.04
2018-07-09T13:41:43.622Z,24.06
2018-07-09T13:42:43.627Z,24.08
2018-07-09T13:43:43.605Z,24.12
2018-07-09T13:44:43.596Z,24.23
2018-07-09T13:45:43.581Z,24.12
2018-07-09T13:46:43.570Z,24.30
2018-07-09T13:47:43.578Z,24.26
2018-07-09T13:48:43.549Z,24.23
2018-07-09T13:49:43.540Z,24.36
2018-07-09T13:50:43.529Z,24.45
2018-07-09T13:51:43.514Z,24.59
2018-07-09T13:52:43.529Z,24.52
2018-07-09T13:53:43.496Z,24.42
2018-07-09T13:54:43.484Z,24.31
2018-07-09T13:55:43.473Z,24.21
2018-07-09T13:56:43.463Z,24.16
2018-07-09T13:57:43.466Z,24.09
2018-07-09T13:58:43.439Z,24.16
2018-07-09T13:59:43.430Z,24.12
2018-07-09T14:00:43.421Z,24.16
2018-07-09T14:01:43.407Z,24.16
2018-07-09T14:02:43.416Z,24.16
2018-07-09T14:03:43.392Z,24.15
2018-07-09T14:04:43.374Z,24.33
2018-07-09T14:05:43.367Z,24.37
2018-07-09T14:06:43.354Z,24.26
2018-07-09T14:07:43.345Z,24.24
2018-07-09T14:08:43.347Z,24.15
2018-07-09T14:09:43.330Z,24.15
2018-07-09T14:10:43.313Z,24.14
2018-07-09T14:11:43.300Z,24.12
2018-07-09T14:12:43.289Z,24.26
2018-07-09T14:13:43.288Z,24.16
2018-07-09T14:14:43.269Z,24.06
2018-07-09T14:15:43.261Z,24.11
2018-07-09T14:16:43.244Z,24.15
2018-07-09T14:17:43.237Z,24.12
2018-07-09T14:18:43.237Z,24.15
2018-07-09T14:19:43.217Z,24.14
2018-07-09T14:20:43.201Z,24.15
2018-07-09T14:21:43.194Z,24.26
2018-07-09T14:22:43.183Z,24.21
2018-07-09T14:23:43.182Z,24.31
2018-07-09T14:24:43.159Z,24.30
2018-07-09T14:25:43.150Z,24.30
2018-07-09T14:26:43.139Z,24.31
2018-07-09T14:27:43.130Z,24.30
2018-07-09T14:28:43.130Z,24.36
2018-07-09T14:29:43.162Z,24.33
2018-07-09T14:30:43.097Z,24.36
2018-07-09T14:31:43.093Z,24.29
2018-07-09T14:32:43.071Z,24.31
2018-07-09T14:33:43.077Z,24.41
2018-07-09T14:34:43.051Z,24.33
2018-07-09T14:35:43.048Z,24.34
2018-07-09T14:36:43.036Z,24.16
2018-07-09T14:37:43.017Z,24.26
2018-07-09T14:38:43.029Z,24.19
2018-07-09T14:39:42.997Z,24.15
2018-07-09T14:40:42.985Z,24.16
2018-07-09T14:41:43.016Z,24.19
2018-07-09T14:42:42.971Z,24.31
2018-07-09T14:43:42.969Z,24.19
2018-07-09T14:44:42.942Z,24.27
2018-07-09T14:45:42.934Z,24.36
2018-07-09T14:46:42.924Z,24.49
2018-07-09T14:47:42.909Z,24.60
2018-07-09T14:48:42.910Z,24.61
2018-07-09T14:49:42.893Z,24.77
2018-07-09T14:50:42.877Z,24.61
2018-07-09T14:51:42.898Z,24.77
2018-07-09T14:52:42.857Z,24.79
2018-07-09T14:53:42.860Z,24.64
2018-07-09T14:54:42.837Z,24.64
2018-07-09T14:55:42.824Z,24.61
2018-07-09T14:56:42.815Z,24.66
2018-07-09T14:57:42.808Z,24.55
2018-07-09T14:58:42.837Z,24.56
2018-07-09T14:59:42.779Z,24.45
2018-07-09T15:00:42.771Z,24.41
2018-07-09T15:01:42.762Z,24.36
2018-07-09T15:02:42.755Z,24.33
2018-07-09T15:03:42.756Z,24.18
2018-07-09T15:04:42.728Z,24.23
2018-07-09T15:05:42.713Z,24.26
2018-07-09T15:06:42.708Z,24.09
2018-07-09T15:07:42.694Z,24.11
2018-07-09T15:08:42.698Z,24.12
2018-07-09T15:09:42.708Z,24.16
2018-07-09T15:10:42.675Z,24.14
2018-07-09T15:11:42.650Z,24.16
2018-07-09T15:12:42.640Z,24.09
2018-07-09T15:13:42.639Z,24.12
2018-07-09T15:14:42.617Z,24.23
2018-07-09T15:15:42.626Z,24.15
2018-07-09T15:16:42.598Z,24.26
2018-07-09T15:17:42.587Z,24.27
2018-07-09T15:18:42.588Z,24.31
2018-07-09T15:19:42.565Z,24.29
2018-07-09T15:20:42.553Z,24.37
2018-07-09T15:21:42.543Z,24.37
2018-07-09T15:22:42.535Z,24.34
2018-07-09T15:23:42.531Z,24.30
2018-07-09T15:24:42.509Z,24.29
2018-07-09T15:25:42.498Z,24.31
2018-07-09T15:26:42.516Z,24.27
2018-07-09T15:27:42.477Z,24.23
2018-07-09T15:28:42.480Z,24.15
2018-07-09T15:29:42.490Z,24.14
2018-07-09T15:30:42.443Z,24.18
2018-07-09T15:31:42.431Z,24.15
2018-07-09T15:32:42.420Z,24.11
2018-07-09T15:33:42.423Z,24.09
2018-07-09T15:34:42.401Z,24.00
2018-07-09T15:35:42.391Z,23.86
2018-07-09T15:36:42.419Z,23.79
2018-07-09T15:37:42.367Z,23.72
2018-07-09T15:38:42.441Z,23.71
2018-07-09T15:39:42.345Z,23.77
2018-07-09T15:40:42.333Z,23.74
2018-07-09T15:41:42.324Z,23.75
2018-07-09T15:42:42.331Z,23.74
2018-07-09T15:43:42.301Z,23.72
2018-07-09T15:44:42.305Z,23.82
2018-07-09T15:45:42.280Z,23.82
2018-07-09T15:46:42.267Z,23.81
2018-07-09T15:47:42.256Z,23.77
2018-07-09T15:48:42.256Z,23.81
2018-07-09T15:49:42.250Z,23.74
2018-07-09T15:50:42.225Z,23.74
2018-07-09T15:51:42.217Z,23.72
2018-07-09T15:52:42.317Z,23.74
2018-07-09T15:53:42.192Z,23.69
2018-07-09T15:54:42.192Z,23.74
2018-07-09T15:55:42.169Z,23.68
2018-07-09T15:56:42.166Z,23.69
2018-07-09T15:57:42.150Z,23.69
2018-07-09T15:58:42.216Z,23.71
2018-07-09T15:59:42.137Z,23.63
2018-07-09T16:00:42.133Z,23.64
2018-07-09T16:01:42.114Z,23.60
2018-07-09T16:02:42.096Z,23.57
2018-07-09T16:03:42.088Z,23.56
2018-07-09T16:04:42.127Z,23.56
2018-07-09T16:05:42.067Z,23.64
2018-07-09T16:06:42.053Z,23.57
2018-07-09T16:07:42.040Z,23.53
2018-07-09T16:08:42.030Z,23.63
2018-07-09T16:09:42.032Z,23.54
2018-07-09T16:10:42.012Z,23.54
2018-07-09T16:11:41.996Z,23.49
2018-07-09T16:12:42.000Z,23.57
2018-07-09T16:13:41.977Z,23.60
2018-07-09T16:14:41.977Z,23.47
2018-07-09T16:15:41.953Z,23.45
2018-07-09T16:16:41.953Z,23.44
2018-07-09T16:17:41.937Z,23.44
2018-07-09T16:18:41.952Z,23.47
2018-07-09T16:19:41.938Z,23.38
2018-07-09T16:20:41.902Z,23.42
2018-07-09T16:21:41.910Z,23.42
2018-07-09T16:22:41.885Z,23.38
2018-07-09T16:23:41.874Z,23.38
2018-07-09T16:24:41.878Z,23.50
2018-07-09T16:25:41.849Z,23.37
2018-07-09T16:26:41.842Z,23.29
2018-07-09T16:27:41.827Z,23.19
2018-07-09T16:28:41.887Z,23.18
2018-07-09T16:29:41.823Z,23.21
2018-07-09T16:30:41.796Z,23.21
2018-07-09T16:31:41.790Z,23.18
2018-07-09T16:32:41.773Z,23.21
2018-07-09T16:33:41.762Z,23.23
2018-07-09T16:34:41.778Z,23.21
2018-07-09T16:35:41.761Z,23.22
2018-07-09T16:36:41.729Z,23.16
2018-07-09T16:37:41.727Z,23.31
2018-07-09T16:38:41.702Z,23.23
2018-07-09T16:39:41.777Z,23.16
2018-07-09T16:40:41.687Z,23.18
2018-07-09T16:41:41.671Z,23.09
2018-07-09T16:42:41.660Z,23.00
2018-07-09T16:43:41.661Z,23.04
2018-07-09T16:44:41.646Z,23.01
2018-07-09T16:45:41.626Z,23.04
2018-07-09T16:46:41.723Z,22.99
2018-07-09T16:47:41.605Z,22.94
2018-07-09T16:48:41.597Z,22.85
2018-07-09T16:49:41.599Z,22.88
2018-07-09T16:50:41.573Z,22.94
2018-07-09T16:51:41.561Z,22.86
2018-07-09T16:52:41.559Z,22.91
2018-07-09T16:53:41.539Z,22.91
2018-07-09T16:54:41.611Z,22.99
2018-07-09T16:55:41.535Z,22.93
2018-07-09T16:56:41.504Z,22.94